sensor_id;sensor_type;location;lat;lon;timestamp;P1;durP1;ratioP1;P2;durP2;ratioP2
81306;SDS011;70775;50.846;3.224;2024-01-11T00:01:27;52.25;;;22.20;;
81306;SDS011;70775;50.846;3.224;2024-01-11T00:05:10;60.60;;;22.88;;
81306;SDS011;70775;50.846;3.224;2024-01-11T00:08:31;46.28;;;20.00;;
81306;SDS011;70775;50.846;3.224;2024-01-11T00:11:45;60.08;;;22.27;;
81306;SDS011;70775;50.846;3.224;2024-01-11T00:29:11;64.68;;;23.92;;
81306;SDS011;70775;50.846;3.224;2024-01-11T00:32:29;70.65;;;25.67;;
81306;SDS011;70775;50.846;3.224;2024-01-11T00:39:16;58.60;;;24.20;;
81306;SDS011;70775;50.846;3.224;2024-01-11T00:46:10;51.22;;;20.13;;
81306;SDS011;70775;50.846;3.224;2024-01-11T01:24:04;64.50;;;21.50;;
81306;SDS011;70775;50.846;3.224;2024-01-11T01:50:40;52.70;;;19.88;;
81306;SDS011;70775;50.846;3.224;2024-01-11T03:03:04;53.83;;;20.92;;
81306;SDS011;70775;50.846;3.224;2024-01-11T04:32:01;57.92;;;24.35;;
81306;SDS011;70775;50.846;3.224;2024-01-11T04:42:42;64.60;;;23.20;;
81306;SDS011;70775;50.846;3.224;2024-01-11T06:18:52;56.20;;;23.65;;
81306;SDS011;70775;50.846;3.224;2024-01-11T06:29:22;53.65;;;22.15;;
81306;SDS011;70775;50.846;3.224;2024-01-11T09:06:11;55.42;;;25.25;;
81306;SDS011;70775;50.846;3.224;2024-01-11T09:36:37;63.05;;;26.38;;
81306;SDS011;70775;50.846;3.224;2024-01-11T09:39:45;67.70;;;26.60;;
81306;SDS011;70775;50.846;3.224;2024-01-11T09:43:12;66.05;;;25.73;;
81306;SDS011;70775;50.846;3.224;2024-01-11T09:46:04;64.10;;;22.80;;
81306;SDS011;70775;50.846;3.224;2024-01-11T09:48:38;49.22;;;20.80;;
81306;SDS011;70775;50.846;3.224;2024-01-11T09:51:09;79.32;;;27.95;;
81306;SDS011;70775;50.846;3.224;2024-01-11T09:53:45;68.88;;;28.02;;
81306;SDS011;70775;50.846;3.224;2024-01-11T09:56:12;79.82;;;30.25;;
81306;SDS011;70775;50.846;3.224;2024-01-11T09:58:38;58.15;;;25.55;;
81306;SDS011;70775;50.846;3.224;2024-01-11T10:01:10;63.28;;;23.00;;
81306;SDS011;70775;50.846;3.224;2024-01-11T10:03:39;71.28;;;29.70;;
81306;SDS011;70775;50.846;3.224;2024-01-11T10:06:06;52.95;;;23.45;;
81306;SDS011;70775;50.846;3.224;2024-01-11T10:08:34;52.20;;;22.50;;
81306;SDS011;70775;50.846;3.224;2024-01-11T10:11:00;68.38;;;24.38;;
81306;SDS011;70775;50.846;3.224;2024-01-11T10:13:28;50.78;;;22.63;;
81306;SDS011;70775;50.846;3.224;2024-01-11T10:16:10;69.05;;;27.83;;
81306;SDS011;70775;50.846;3.224;2024-01-11T10:18:40;60.03;;;23.13;;
81306;SDS011;70775;50.846;3.224;2024-01-11T10:21:07;56.50;;;24.30;;
81306;SDS011;70775;50.846;3.224;2024-01-11T10:23:34;68.60;;;27.48;;
81306;SDS011;70775;50.846;3.224;2024-01-11T10:26:01;67.45;;;28.67;;
81306;SDS011;70775;50.846;3.224;2024-01-11T10:28:27;53.72;;;19.27;;
81306;SDS011;70775;50.846;3.224;2024-01-11T10:30:54;59.65;;;24.08;;
81306;SDS011;70775;50.846;3.224;2024-01-11T10:33:20;85.72;;;32.30;;
81306;SDS011;70775;50.846;3.224;2024-01-11T10:35:50;51.72;;;22.38;;
81306;SDS011;70775;50.846;3.224;2024-01-11T10:38:16;69.47;;;27.17;;
81306;SDS011;70775;50.846;3.224;2024-01-11T10:40:42;69.50;;;26.10;;
81306;SDS011;70775;50.846;3.224;2024-01-11T10:43:08;56.10;;;25.30;;
81306;SDS011;70775;50.846;3.224;2024-01-11T10:45:36;61.00;;;23.90;;
81306;SDS011;70775;50.846;3.224;2024-01-11T10:48:07;72.60;;;30.02;;
81306;SDS011;70775;50.846;3.224;2024-01-11T10:50:38;59.97;;;25.52;;
81306;SDS011;70775;50.846;3.224;2024-01-11T10:56:06;59.65;;;25.67;;
81306;SDS011;70775;50.846;3.224;2024-01-11T10:58:33;72.72;;;29.10;;
81306;SDS011;70775;50.846;3.224;2024-01-11T11:01:00;77.32;;;31.58;;
81306;SDS011;70775;50.846;3.224;2024-01-11T11:03:31;61.17;;;25.10;;
81306;SDS011;70775;50.846;3.224;2024-01-11T11:05:59;67.55;;;28.20;;
81306;SDS011;70775;50.846;3.224;2024-01-11T11:08:25;81.75;;;29.92;;
81306;SDS011;70775;50.846;3.224;2024-01-11T11:10:56;68.10;;;28.65;;
81306;SDS011;70775;50.846;3.224;2024-01-11T11:13:23;71.68;;;29.23;;
81306;SDS011;70775;50.846;3.224;2024-01-11T11:15:49;68.50;;;27.27;;
81306;SDS011;70775;50.846;3.224;2024-01-11T11:18:15;67.65;;;29.23;;
81306;SDS011;70775;50.846;3.224;2024-01-11T11:20:42;68.70;;;28.02;;
81306;SDS011;70775;50.846;3.224;2024-01-11T11:23:08;64.70;;;25.50;;
81306;SDS011;70775;50.846;3.224;2024-01-11T11:25:35;51.03;;;20.30;;
81306;SDS011;70775;50.846;3.224;2024-01-11T11:28:01;68.15;;;26.38;;
81306;SDS011;70775;50.846;3.224;2024-01-11T11:30:31;64.45;;;27.75;;
81306;SDS011;70775;50.846;3.224;2024-01-11T11:33:19;61.30;;;23.40;;
81306;SDS011;70775;50.846;3.224;2024-01-11T11:35:51;64.47;;;28.98;;
81306;SDS011;70775;50.846;3.224;2024-01-11T11:38:22;63.88;;;26.10;;
81306;SDS011;70775;50.846;3.224;2024-01-11T11:40:49;70.47;;;27.83;;
81306;SDS011;70775;50.846;3.224;2024-01-11T11:43:17;59.72;;;25.20;;
81306;SDS011;70775;50.846;3.224;2024-01-11T11:45:45;64.05;;;27.42;;
81306;SDS011;70775;50.846;3.224;2024-01-11T11:53:33;75.18;;;28.30;;
81306;SDS011;70775;50.846;3.224;2024-01-11T11:56:00;54.95;;;24.40;;
81306;SDS011;70775;50.846;3.224;2024-01-11T11:58:27;37.05;;;17.83;;
81306;SDS011;70775;50.846;3.224;2024-01-11T12:00:57;50.92;;;22.15;;
81306;SDS011;70775;50.846;3.224;2024-01-11T12:06:01;48.50;;;22.48;;
81306;SDS011;70775;50.846;3.224;2024-01-11T12:08:26;42.70;;;20.42;;
81306;SDS011;70775;50.846;3.224;2024-01-11T12:10:53;46.97;;;22.05;;
81306;SDS011;70775;50.846;3.224;2024-01-11T12:13:19;51.72;;;22.80;;
81306;SDS011;70775;50.846;3.224;2024-01-11T12:15:45;52.60;;;18.95;;
81306;SDS011;70775;50.846;3.224;2024-01-11T12:18:11;62.90;;;24.17;;
81306;SDS011;70775;50.846;3.224;2024-01-11T12:20:37;53.72;;;22.55;;
81306;SDS011;70775;50.846;3.224;2024-01-11T12:23:03;46.05;;;21.00;;
81306;SDS011;70775;50.846;3.224;2024-01-11T12:25:29;37.38;;;17.27;;
81306;SDS011;70775;50.846;3.224;2024-01-11T12:27:56;45.88;;;19.70;;
81306;SDS011;70775;50.846;3.224;2024-01-11T12:30:21;53.08;;;23.25;;
81306;SDS011;70775;50.846;3.224;2024-01-11T12:32:48;51.70;;;24.25;;
81306;SDS011;70775;50.846;3.224;2024-01-11T12:35:14;43.70;;;19.77;;
81306;SDS011;70775;50.846;3.224;2024-01-11T12:37:41;49.58;;;20.58;;
81306;SDS011;70775;50.846;3.224;2024-01-11T12:40:17;52.80;;;19.45;;
81306;SDS011;70775;50.846;3.224;2024-01-11T12:42:42;52.92;;;22.08;;
81306;SDS011;70775;50.846;3.224;2024-01-11T12:45:08;47.53;;;20.73;;
81306;SDS011;70775;50.846;3.224;2024-01-11T12:47:34;60.20;;;22.23;;
81306;SDS011;70775;50.846;3.224;2024-01-11T12:50:00;48.58;;;21.48;;
81306;SDS011;70775;50.846;3.224;2024-01-11T12:52:26;53.38;;;23.60;;
81306;SDS011;70775;50.846;3.224;2024-01-11T12:54:52;50.45;;;23.20;;
81306;SDS011;70775;50.846;3.224;2024-01-11T12:57:18;41.00;;;16.67;;
81306;SDS011;70775;50.846;3.224;2024-01-11T12:59:44;47.55;;;22.52;;
81306;SDS011;70775;50.846;3.224;2024-01-11T13:02:10;39.75;;;16.98;;
81306;SDS011;70775;50.846;3.224;2024-01-11T13:04:39;38.03;;;16.77;;
81306;SDS011;70775;50.846;3.224;2024-01-11T13:07:05;46.50;;;20.00;;
81306;SDS011;70775;50.846;3.224;2024-01-11T13:09:32;49.30;;;22.40;;
81306;SDS011;70775;50.846;3.224;2024-01-11T13:11:58;35.00;;;15.27;;
81306;SDS011;70775;50.846;3.224;2024-01-11T13:14:24;47.25;;;18.52;;
81306;SDS011;70775;50.846;3.224;2024-01-11T13:16:50;48.95;;;21.98;;
81306;SDS011;70775;50.846;3.224;2024-01-11T13:19:16;52.17;;;20.02;;
81306;SDS011;70775;50.846;3.224;2024-01-11T13:21:41;49.55;;;21.73;;
81306;SDS011;70775;50.846;3.224;2024-01-11T13:24:07;56.83;;;21.23;;
81306;SDS011;70775;50.846;3.224;2024-01-11T13:26:33;48.10;;;21.48;;
81306;SDS011;70775;50.846;3.224;2024-01-11T13:29:01;57.22;;;23.65;;
81306;SDS011;70775;50.846;3.224;2024-01-11T13:31:28;46.20;;;20.17;;
81306;SDS011;70775;50.846;3.224;2024-01-11T13:33:53;49.40;;;22.50;;
81306;SDS011;70775;50.846;3.224;2024-01-11T13:36:21;52.35;;;20.25;;
81306;SDS011;70775;50.846;3.224;2024-01-11T13:38:49;48.58;;;21.90;;
81306;SDS011;70775;50.846;3.224;2024-01-11T13:41:16;51.92;;;20.55;;
81306;SDS011;70775;50.846;3.224;2024-01-11T13:43:42;63.92;;;24.75;;
81306;SDS011;70775;50.846;3.224;2024-01-11T13:46:08;51.00;;;23.98;;
81306;SDS011;70775;50.846;3.224;2024-01-11T13:48:34;50.35;;;23.73;;
81306;SDS011;70775;50.846;3.224;2024-01-11T13:51:00;46.67;;;19.00;;
81306;SDS011;70775;50.846;3.224;2024-01-11T13:53:28;45.20;;;18.55;;
81306;SDS011;70775;50.846;3.224;2024-01-11T13:55:54;49.20;;;21.88;;
81306;SDS011;70775;50.846;3.224;2024-01-11T13:58:20;44.75;;;21.35;;
81306;SDS011;70775;50.846;3.224;2024-01-11T14:00:46;48.80;;;21.42;;
81306;SDS011;70775;50.846;3.224;2024-01-11T14:03:12;48.50;;;21.02;;
81306;SDS011;70775;50.846;3.224;2024-01-11T14:05:38;42.63;;;18.42;;
81306;SDS011;70775;50.846;3.224;2024-01-11T14:08:04;54.33;;;19.55;;
81306;SDS011;70775;50.846;3.224;2024-01-11T14:10:33;43.20;;;20.15;;
81306;SDS011;70775;50.846;3.224;2024-01-11T14:12:59;40.42;;;16.58;;
81306;SDS011;70775;50.846;3.224;2024-01-11T14:15:28;43.22;;;19.50;;
81306;SDS011;70775;50.846;3.224;2024-01-11T14:17:54;39.00;;;16.85;;
81306;SDS011;70775;50.846;3.224;2024-01-11T14:20:20;44.88;;;18.27;;
81306;SDS011;70775;50.846;3.224;2024-01-11T14:22:46;42.45;;;16.90;;
81306;SDS011;70775;50.846;3.224;2024-01-11T14:25:13;37.30;;;16.05;;
81306;SDS011;70775;50.846;3.224;2024-01-11T14:27:43;39.05;;;17.55;;
81306;SDS011;70775;50.846;3.224;2024-01-11T14:30:09;42.83;;;17.92;;
81306;SDS011;70775;50.846;3.224;2024-01-11T14:32:36;41.97;;;18.60;;
81306;SDS011;70775;50.846;3.224;2024-01-11T14:35:02;38.78;;;16.63;;
81306;SDS011;70775;50.846;3.224;2024-01-11T14:37:33;43.25;;;18.92;;
81306;SDS011;70775;50.846;3.224;2024-01-11T14:39:59;45.15;;;17.67;;
81306;SDS011;70775;50.846;3.224;2024-01-11T14:42:25;46.17;;;17.20;;
81306;SDS011;70775;50.846;3.224;2024-01-11T14:44:51;36.72;;;16.15;;
81306;SDS011;70775;50.846;3.224;2024-01-11T14:47:17;41.25;;;16.60;;
81306;SDS011;70775;50.846;3.224;2024-01-11T14:49:44;44.90;;;18.38;;
81306;SDS011;70775;50.846;3.224;2024-01-11T14:52:10;45.85;;;18.58;;
81306;SDS011;70775;50.846;3.224;2024-01-11T14:54:36;46.20;;;20.23;;
81306;SDS011;70775;50.846;3.224;2024-01-11T14:57:01;52.28;;;21.08;;
81306;SDS011;70775;50.846;3.224;2024-01-11T14:59:27;59.60;;;22.45;;
81306;SDS011;70775;50.846;3.224;2024-01-11T15:01:53;49.42;;;20.08;;
81306;SDS011;70775;50.846;3.224;2024-01-11T15:04:18;46.50;;;19.77;;
81306;SDS011;70775;50.846;3.224;2024-01-11T15:06:45;51.97;;;21.17;;
81306;SDS011;70775;50.846;3.224;2024-01-11T15:09:11;52.85;;;22.77;;
81306;SDS011;70775;50.846;3.224;2024-01-11T15:11:37;37.00;;;17.88;;
81306;SDS011;70775;50.846;3.224;2024-01-11T15:14:06;53.90;;;19.35;;
81306;SDS011;70775;50.846;3.224;2024-01-11T15:16:34;49.95;;;19.83;;
81306;SDS011;70775;50.846;3.224;2024-01-11T15:19:00;50.13;;;19.20;;
81306;SDS011;70775;50.846;3.224;2024-01-11T15:21:26;50.53;;;20.13;;
81306;SDS011;70775;50.846;3.224;2024-01-11T15:23:52;47.67;;;19.38;;
81306;SDS011;70775;50.846;3.224;2024-01-11T15:26:19;48.17;;;18.35;;
81306;SDS011;70775;50.846;3.224;2024-01-11T15:28:46;36.90;;;15.05;;
81306;SDS011;70775;50.846;3.224;2024-01-11T15:31:14;40.17;;;18.10;;
81306;SDS011;70775;50.846;3.224;2024-01-11T15:33:40;49.63;;;20.00;;
81306;SDS011;70775;50.846;3.224;2024-01-11T15:36:06;47.35;;;18.27;;
81306;SDS011;70775;50.846;3.224;2024-01-11T15:38:32;47.33;;;18.15;;
81306;SDS011;70775;50.846;3.224;2024-01-11T15:40:57;50.47;;;19.40;;
81306;SDS011;70775;50.846;3.224;2024-01-11T15:43:23;44.97;;;18.60;;
81306;SDS011;70775;50.846;3.224;2024-01-11T15:45:49;49.83;;;18.85;;
81306;SDS011;70775;50.846;3.224;2024-01-11T15:48:15;50.17;;;21.48;;
81306;SDS011;70775;50.846;3.224;2024-01-11T15:50:40;43.38;;;17.35;;
81306;SDS011;70775;50.846;3.224;2024-01-11T15:53:07;49.95;;;20.73;;
81306;SDS011;70775;50.846;3.224;2024-01-11T15:55:33;43.70;;;17.33;;
81306;SDS011;70775;50.846;3.224;2024-01-11T15:57:59;54.28;;;20.25;;
81306;SDS011;70775;50.846;3.224;2024-01-11T16:00:26;49.10;;;18.65;;
81306;SDS011;70775;50.846;3.224;2024-01-11T16:02:51;53.65;;;21.48;;
81306;SDS011;70775;50.846;3.224;2024-01-11T16:05:18;50.60;;;19.38;;
81306;SDS011;70775;50.846;3.224;2024-01-11T16:07:44;55.78;;;22.23;;
81306;SDS011;70775;50.846;3.224;2024-01-11T16:10:09;58.00;;;20.90;;
81306;SDS011;70775;50.846;3.224;2024-01-11T16:12:35;56.70;;;22.20;;
81306;SDS011;70775;50.846;3.224;2024-01-11T16:15:02;53.53;;;20.95;;
81306;SDS011;70775;50.846;3.224;2024-01-11T16:17:28;53.90;;;20.92;;
81306;SDS011;70775;50.846;3.224;2024-01-11T16:19:53;56.58;;;22.77;;
81306;SDS011;70775;50.846;3.224;2024-01-11T16:22:19;55.80;;;23.73;;
81306;SDS011;70775;50.846;3.224;2024-01-11T16:24:45;56.47;;;24.73;;
81306;SDS011;70775;50.846;3.224;2024-01-11T16:27:11;59.15;;;23.63;;
81306;SDS011;70775;50.846;3.224;2024-01-11T16:29:39;62.72;;;25.42;;
81306;SDS011;70775;50.846;3.224;2024-01-11T16:32:06;62.83;;;23.58;;
81306;SDS011;70775;50.846;3.224;2024-01-11T16:34:32;64.50;;;25.48;;
81306;SDS011;70775;50.846;3.224;2024-01-11T16:36:58;75.10;;;30.75;;
81306;SDS011;70775;50.846;3.224;2024-01-11T16:39:24;76.97;;;29.98;;
81306;SDS011;70775;50.846;3.224;2024-01-11T16:41:49;67.32;;;27.48;;
81306;SDS011;70775;50.846;3.224;2024-01-11T16:44:16;67.47;;;26.33;;
81306;SDS011;70775;50.846;3.224;2024-01-11T16:46:42;62.75;;;27.30;;
81306;SDS011;70775;50.846;3.224;2024-01-11T16:49:08;65.63;;;26.80;;
81306;SDS011;70775;50.846;3.224;2024-01-11T16:51:34;61.17;;;26.95;;
81306;SDS011;70775;50.846;3.224;2024-01-11T16:54:09;64.25;;;26.33;;
81306;SDS011;70775;50.846;3.224;2024-01-11T16:56:35;77.20;;;29.02;;
81306;SDS011;70775;50.846;3.224;2024-01-11T16:59:01;79.25;;;30.50;;
81306;SDS011;70775;50.846;3.224;2024-01-11T17:01:28;75.72;;;30.00;;
81306;SDS011;70775;50.846;3.224;2024-01-11T17:03:54;75.82;;;30.95;;
81306;SDS011;70775;50.846;3.224;2024-01-11T17:06:19;79.18;;;31.27;;
81306;SDS011;70775;50.846;3.224;2024-01-11T17:08:46;78.70;;;33.22;;
81306;SDS011;70775;50.846;3.224;2024-01-11T17:11:12;75.68;;;34.42;;
81306;SDS011;70775;50.846;3.224;2024-01-11T17:13:38;84.40;;;34.85;;
81306;SDS011;70775;50.846;3.224;2024-01-11T17:16:03;75.15;;;33.42;;
81306;SDS011;70775;50.846;3.224;2024-01-11T17:18:31;84.57;;;34.38;;
81306;SDS011;70775;50.846;3.224;2024-01-11T17:20:57;81.47;;;36.17;;
81306;SDS011;70775;50.846;3.224;2024-01-11T17:23:23;79.65;;;32.30;;
81306;SDS011;70775;50.846;3.224;2024-01-11T17:25:49;69.60;;;28.95;;
81306;SDS011;70775;50.846;3.224;2024-01-11T17:28:14;69.20;;;29.52;;
81306;SDS011;70775;50.846;3.224;2024-01-11T17:30:40;82.55;;;32.22;;
81306;SDS011;70775;50.846;3.224;2024-01-11T17:33:05;64.78;;;29.55;;
81306;SDS011;70775;50.846;3.224;2024-01-11T17:35:31;72.55;;;33.13;;
81306;SDS011;70775;50.846;3.224;2024-01-11T17:37:57;79.95;;;32.15;;
81306;SDS011;70775;50.846;3.224;2024-01-11T17:40:22;75.55;;;31.60;;
81306;SDS011;70775;50.846;3.224;2024-01-11T17:42:48;75.60;;;30.75;;
81306;SDS011;70775;50.846;3.224;2024-01-11T17:45:14;70.45;;;29.38;;
81306;SDS011;70775;50.846;3.224;2024-01-11T17:47:41;72.60;;;29.65;;
81306;SDS011;70775;50.846;3.224;2024-01-11T17:50:07;62.13;;;28.05;;
81306;SDS011;70775;50.846;3.224;2024-01-11T17:52:33;74.25;;;30.45;;
81306;SDS011;70775;50.846;3.224;2024-01-11T17:54:59;66.45;;;29.38;;
81306;SDS011;70775;50.846;3.224;2024-01-11T17:57:24;74.43;;;29.60;;
81306;SDS011;70775;50.846;3.224;2024-01-11T17:59:50;65.43;;;29.08;;
81306;SDS011;70775;50.846;3.224;2024-01-11T18:02:16;71.13;;;27.90;;
81306;SDS011;70775;50.846;3.224;2024-01-11T18:04:42;63.58;;;27.65;;
81306;SDS011;70775;50.846;3.224;2024-01-11T18:07:08;66.47;;;28.23;;
81306;SDS011;70775;50.846;3.224;2024-01-11T18:09:34;73.47;;;28.98;;
81306;SDS011;70775;50.846;3.224;2024-01-11T18:12:00;76.10;;;32.40;;
81306;SDS011;70775;50.846;3.224;2024-01-11T18:14:27;71.35;;;30.50;;
81306;SDS011;70775;50.846;3.224;2024-01-11T18:16:52;76.85;;;28.95;;
81306;SDS011;70775;50.846;3.224;2024-01-11T18:19:18;80.38;;;29.80;;
81306;SDS011;70775;50.846;3.224;2024-01-11T18:21:44;68.55;;;31.08;;
81306;SDS011;70775;50.846;3.224;2024-01-11T18:24:09;77.65;;;31.13;;
81306;SDS011;70775;50.846;3.224;2024-01-11T18:26:36;73.18;;;29.30;;
81306;SDS011;70775;50.846;3.224;2024-01-11T18:29:02;73.75;;;30.50;;
81306;SDS011;70775;50.846;3.224;2024-01-11T18:31:28;81.72;;;31.33;;
81306;SDS011;70775;50.846;3.224;2024-01-11T18:33:54;76.45;;;31.17;;
81306;SDS011;70775;50.846;3.224;2024-01-11T18:36:20;91.90;;;37.08;;
81306;SDS011;70775;50.846;3.224;2024-01-11T18:38:46;94.07;;;40.75;;
81306;SDS011;70775;50.846;3.224;2024-01-11T18:41:12;84.70;;;36.88;;
81306;SDS011;70775;50.846;3.224;2024-01-11T18:43:38;87.38;;;35.60;;
81306;SDS011;70775;50.846;3.224;2024-01-11T18:46:04;81.47;;;34.47;;
81306;SDS011;70775;50.846;3.224;2024-01-11T18:48:31;84.95;;;35.22;;
81306;SDS011;70775;50.846;3.224;2024-01-11T18:50:56;88.63;;;35.85;;
81306;SDS011;70775;50.846;3.224;2024-01-11T18:53:23;81.07;;;33.58;;
81306;SDS011;70775;50.846;3.224;2024-01-11T18:55:48;86.68;;;35.45;;
81306;SDS011;70775;50.846;3.224;2024-01-11T18:58:14;86.82;;;35.70;;
81306;SDS011;70775;50.846;3.224;2024-01-11T19:00:43;93.78;;;36.20;;
81306;SDS011;70775;50.846;3.224;2024-01-11T19:03:09;88.15;;;37.45;;
81306;SDS011;70775;50.846;3.224;2024-01-11T19:05:37;87.93;;;37.72;;
81306;SDS011;70775;50.846;3.224;2024-01-11T19:08:05;96.10;;;38.60;;
81306;SDS011;70775;50.846;3.224;2024-01-11T19:10:30;92.07;;;39.28;;
81306;SDS011;70775;50.846;3.224;2024-01-11T19:12:57;90.40;;;40.78;;
81306;SDS011;70775;50.846;3.224;2024-01-11T19:15:22;113.78;;;44.35;;
81306;SDS011;70775;50.846;3.224;2024-01-11T19:17:48;97.57;;;40.40;;
81306;SDS011;70775;50.846;3.224;2024-01-11T19:20:14;87.07;;;38.15;;
81306;SDS011;70775;50.846;3.224;2024-01-11T19:22:40;87.28;;;36.20;;
81306;SDS011;70775;50.846;3.224;2024-01-11T19:25:06;93.90;;;36.60;;
81306;SDS011;70775;50.846;3.224;2024-01-11T19:27:32;88.40;;;35.45;;
81306;SDS011;70775;50.846;3.224;2024-01-11T19:29:59;82.97;;;35.75;;
81306;SDS011;70775;50.846;3.224;2024-01-11T19:35:03;82.10;;;34.65;;
81306;SDS011;70775;50.846;3.224;2024-01-11T19:37:31;95.15;;;39.40;;
81306;SDS011;70775;50.846;3.224;2024-01-11T19:39:59;91.90;;;40.40;;
81306;SDS011;70775;50.846;3.224;2024-01-11T19:42:29;87.95;;;39.08;;
81306;SDS011;70775;50.846;3.224;2024-01-11T19:44:57;95.50;;;39.70;;
81306;SDS011;70775;50.846;3.224;2024-01-11T19:47:25;92.53;;;38.65;;
81306;SDS011;70775;50.846;3.224;2024-01-11T19:49:53;98.30;;;38.13;;
81306;SDS011;70775;50.846;3.224;2024-01-11T19:52:21;90.80;;;38.10;;
81306;SDS011;70775;50.846;3.224;2024-01-11T19:54:49;90.97;;;40.85;;
81306;SDS011;70775;50.846;3.224;2024-01-11T19:57:21;107.45;;;40.83;;
81306;SDS011;70775;50.846;3.224;2024-01-11T19:59:49;91.60;;;41.72;;
81306;SDS011;70775;50.846;3.224;2024-01-11T20:02:17;105.40;;;40.42;;
81306;SDS011;70775;50.846;3.224;2024-01-11T20:04:45;88.85;;;38.65;;
81306;SDS011;70775;50.846;3.224;2024-01-11T20:07:17;102.68;;;43.50;;
81306;SDS011;70775;50.846;3.224;2024-01-11T20:09:46;105.45;;;43.25;;
81306;SDS011;70775;50.846;3.224;2024-01-11T20:12:14;122.20;;;51.03;;
81306;SDS011;70775;50.846;3.224;2024-01-11T20:14:43;120.43;;;47.72;;
81306;SDS011;70775;50.846;3.224;2024-01-11T20:17:10;119.97;;;47.35;;
81306;SDS011;70775;50.846;3.224;2024-01-11T20:19:37;128.85;;;49.47;;
81306;SDS011;70775;50.846;3.224;2024-01-11T20:22:05;128.95;;;49.05;;
81306;SDS011;70775;50.846;3.224;2024-01-11T20:24:34;123.68;;;49.05;;
81306;SDS011;70775;50.846;3.224;2024-01-11T20:27:02;114.68;;;49.67;;
81306;SDS011;70775;50.846;3.224;2024-01-11T20:29:31;132.30;;;49.80;;
81306;SDS011;70775;50.846;3.224;2024-01-11T20:31:59;126.70;;;51.58;;
81306;SDS011;70775;50.846;3.224;2024-01-11T20:34:28;128.85;;;53.92;;
81306;SDS011;70775;50.846;3.224;2024-01-11T20:36:56;137.00;;;55.72;;
81306;SDS011;70775;50.846;3.224;2024-01-11T20:39:24;130.73;;;52.72;;
81306;SDS011;70775;50.846;3.224;2024-01-11T20:41:51;139.23;;;52.80;;
81306;SDS011;70775;50.846;3.224;2024-01-11T20:44:22;140.95;;;51.25;;
81306;SDS011;70775;50.846;3.224;2024-01-11T20:46:51;131.10;;;52.00;;
81306;SDS011;70775;50.846;3.224;2024-01-11T20:49:23;117.80;;;49.72;;
81306;SDS011;70775;50.846;3.224;2024-01-11T20:51:50;106.95;;;44.75;;
81306;SDS011;70775;50.846;3.224;2024-01-11T20:54:23;116.43;;;44.85;;
81306;SDS011;70775;50.846;3.224;2024-01-11T20:56:55;110.88;;;45.50;;
81306;SDS011;70775;50.846;3.224;2024-01-11T20:59:23;115.05;;;46.05;;
81306;SDS011;70775;50.846;3.224;2024-01-11T21:01:51;107.75;;;44.35;;
81306;SDS011;70775;50.846;3.224;2024-01-11T21:04:21;115.65;;;46.10;;
81306;SDS011;70775;50.846;3.224;2024-01-11T21:06:49;108.93;;;45.17;;
81306;SDS011;70775;50.846;3.224;2024-01-11T21:09:17;113.75;;;46.85;;
81306;SDS011;70775;50.846;3.224;2024-01-11T21:11:45;115.75;;;47.55;;
81306;SDS011;70775;50.846;3.224;2024-01-11T21:14:13;117.93;;;49.42;;
81306;SDS011;70775;50.846;3.224;2024-01-11T21:16:42;129.27;;;51.10;;
81306;SDS011;70775;50.846;3.224;2024-01-11T21:19:10;125.30;;;51.50;;
81306;SDS011;70775;50.846;3.224;2024-01-11T21:21:40;133.70;;;53.42;;
81306;SDS011;70775;50.846;3.224;2024-01-11T21:24:05;126.88;;;48.42;;
81306;SDS011;70775;50.846;3.224;2024-01-11T21:26:31;109.55;;;48.53;;
81306;SDS011;70775;50.846;3.224;2024-01-11T21:28:57;115.85;;;48.08;;
81306;SDS011;70775;50.846;3.224;2024-01-11T21:31:27;130.20;;;52.05;;
81306;SDS011;70775;50.846;3.224;2024-01-11T21:33:53;115.88;;;49.58;;
81306;SDS011;70775;50.846;3.224;2024-01-11T21:36:20;114.18;;;47.25;;
81306;SDS011;70775;50.846;3.224;2024-01-11T21:38:52;116.93;;;46.63;;
81306;SDS011;70775;50.846;3.224;2024-01-11T21:41:23;121.07;;;46.88;;
81306;SDS011;70775;50.846;3.224;2024-01-11T21:43:52;120.38;;;47.03;;
81306;SDS011;70775;50.846;3.224;2024-01-11T21:46:20;110.35;;;46.38;;
81306;SDS011;70775;50.846;3.224;2024-01-11T21:48:46;111.03;;;45.58;;
81306;SDS011;70775;50.846;3.224;2024-01-11T21:51:12;111.80;;;44.60;;
81306;SDS011;70775;50.846;3.224;2024-01-11T21:53:38;99.20;;;42.72;;
81306;SDS011;70775;50.846;3.224;2024-01-11T21:56:04;110.00;;;43.47;;
81306;SDS011;70775;50.846;3.224;2024-01-11T21:58:30;109.22;;;43.72;;
81306;SDS011;70775;50.846;3.224;2024-01-11T22:00:56;104.20;;;44.30;;
81306;SDS011;70775;50.846;3.224;2024-01-11T22:03:22;110.07;;;42.50;;
81306;SDS011;70775;50.846;3.224;2024-01-11T22:05:50;106.57;;;41.88;;
81306;SDS011;70775;50.846;3.224;2024-01-11T22:08:16;104.03;;;41.83;;
81306;SDS011;70775;50.846;3.224;2024-01-11T22:10:45;95.57;;;40.72;;
81306;SDS011;70775;50.846;3.224;2024-01-11T22:13:12;106.75;;;42.63;;
81306;SDS011;70775;50.846;3.224;2024-01-11T22:15:38;116.10;;;45.05;;
81306;SDS011;70775;50.846;3.224;2024-01-11T22:18:04;99.82;;;42.47;;
81306;SDS011;70775;50.846;3.224;2024-01-11T22:20:30;105.40;;;43.65;;
81306;SDS011;70775;50.846;3.224;2024-01-11T22:22:57;103.60;;;41.70;;
81306;SDS011;70775;50.846;3.224;2024-01-11T22:25:23;107.30;;;41.33;;
81306;SDS011;70775;50.846;3.224;2024-01-11T22:27:49;117.80;;;44.95;;
81306;SDS011;70775;50.846;3.224;2024-01-11T22:30:15;114.30;;;43.42;;
81306;SDS011;70775;50.846;3.224;2024-01-11T22:32:42;111.50;;;42.40;;
81306;SDS011;70775;50.846;3.224;2024-01-11T22:35:08;109.47;;;43.03;;
81306;SDS011;70775;50.846;3.224;2024-01-11T22:37:34;110.20;;;42.45;;
81306;SDS011;70775;50.846;3.224;2024-01-11T22:40:00;105.95;;;43.13;;
81306;SDS011;70775;50.846;3.224;2024-01-11T22:42:27;105.40;;;43.10;;
81306;SDS011;70775;50.846;3.224;2024-01-11T22:44:53;106.75;;;42.40;;
81306;SDS011;70775;50.846;3.224;2024-01-11T22:47:20;108.13;;;43.60;;
81306;SDS011;70775;50.846;3.224;2024-01-11T22:49:46;119.32;;;45.85;;
81306;SDS011;70775;50.846;3.224;2024-01-11T22:52:11;108.25;;;42.83;;
81306;SDS011;70775;50.846;3.224;2024-01-11T22:54:37;117.70;;;44.65;;
81306;SDS011;70775;50.846;3.224;2024-01-11T22:57:06;113.82;;;44.75;;
81306;SDS011;70775;50.846;3.224;2024-01-11T22:59:32;119.22;;;43.42;;
81306;SDS011;70775;50.846;3.224;2024-01-11T23:02:00;119.05;;;44.03;;
81306;SDS011;70775;50.846;3.224;2024-01-11T23:04:26;112.07;;;43.83;;
81306;SDS011;70775;50.846;3.224;2024-01-11T23:06:51;114.50;;;45.42;;
81306;SDS011;70775;50.846;3.224;2024-01-11T23:09:17;116.57;;;44.13;;
81306;SDS011;70775;50.846;3.224;2024-01-11T23:11:43;111.80;;;43.25;;
81306;SDS011;70775;50.846;3.224;2024-01-11T23:14:09;105.93;;;41.00;;
81306;SDS011;70775;50.846;3.224;2024-01-11T23:16:34;112.30;;;43.42;;
81306;SDS011;70775;50.846;3.224;2024-01-11T23:19:01;114.20;;;44.47;;
81306;SDS011;70775;50.846;3.224;2024-01-11T23:21:27;113.28;;;41.28;;
81306;SDS011;70775;50.846;3.224;2024-01-11T23:23:53;123.47;;;43.22;;
81306;SDS011;70775;50.846;3.224;2024-01-11T23:26:18;107.55;;;40.80;;
81306;SDS011;70775;50.846;3.224;2024-01-11T23:28:44;101.60;;;41.50;;